sensor_id;sensor_type;location;lat;lon;timestamp;temperature;humidity
54264;DHT22;40178;53.042;6.406;2023-06-05T00:01:37;9.50;25.80
54264;DHT22;40178;53.042;6.406;2023-06-05T00:06:31;9.40;31.30
54264;DHT22;40178;53.042;6.406;2023-06-05T00:08:57;9.40;37.70
54264;DHT22;40178;53.042;6.406;2023-06-05T00:11:23;9.30;46.70
54264;DHT22;40178;53.042;6.406;2023-06-05T00:13:49;9.30;43.40
54264;DHT22;40178;53.042;6.406;2023-06-05T00:16:17;9.40;41.70
54264;DHT22;40178;53.042;6.406;2023-06-05T00:18:43;9.40;38.60
54264;DHT22;40178;53.042;6.406;2023-06-05T00:21:13;9.40;38.00
54264;DHT22;40178;53.042;6.406;2023-06-05T00:23:39;9.40;40.30
54264;DHT22;40178;53.042;6.406;2023-06-05T00:26:04;9.40;44.10
54264;DHT22;40178;53.042;6.406;2023-06-05T00:28:30;9.40;43.40
54264;DHT22;40178;53.042;6.406;2023-06-05T00:30:56;9.50;40.10
54264;DHT22;40178;53.042;6.406;2023-06-05T00:33:21;9.40;45.70
54264;DHT22;40178;53.042;6.406;2023-06-05T00:35:47;9.40;66.70
54264;DHT22;40178;53.042;6.406;2023-06-05T00:38:12;9.50;53.90
54264;DHT22;40178;53.042;6.406;2023-06-05T00:40:38;9.50;53.10
54264;DHT22;40178;53.042;6.406;2023-06-05T00:43:03;9.60;56.90
54264;DHT22;40178;53.042;6.406;2023-06-05T00:45:31;9.60;69.50
54264;DHT22;40178;53.042;6.406;2023-06-05T00:47:57;9.60;60.10
54264;DHT22;40178;53.042;6.406;2023-06-05T00:50:22;9.50;63.50
54264;DHT22;40178;53.042;6.406;2023-06-05T00:52:49;9.50;62.40
54264;DHT22;40178;53.042;6.406;2023-06-05T00:55:15;9.50;56.50
54264;DHT22;40178;53.042;6.406;2023-06-05T00:57:43;9.50;56.60
54264;DHT22;40178;53.042;6.406;2023-06-05T01:00:10;9.60;54.40
54264;DHT22;40178;53.042;6.406;2023-06-05T01:02:38;9.60;56.60
54264;DHT22;40178;53.042;6.406;2023-06-05T01:05:05;9.50;55.20
54264;DHT22;40178;53.042;6.406;2023-06-05T01:07:35;9.40;62.00
54264;DHT22;40178;53.042;6.406;2023-06-05T01:10:05;9.40;58.90
54264;DHT22;40178;53.042;6.406;2023-06-05T01:15:24;9.40;61.80
54264;DHT22;40178;53.042;6.406;2023-06-05T01:17:55;9.30;61.50
54264;DHT22;40178;53.042;6.406;2023-06-05T01:20:22;9.30;60.20
54264;DHT22;40178;53.042;6.406;2023-06-05T01:22:49;9.30;61.20
54264;DHT22;40178;53.042;6.406;2023-06-05T01:25:17;9.30;63.10
54264;DHT22;40178;53.042;6.406;2023-06-05T01:27:46;9.20;62.00
54264;DHT22;40178;53.042;6.406;2023-06-05T01:32:50;9.20;67.20
54264;DHT22;40178;53.042;6.406;2023-06-05T01:35:21;9.20;63.20
54264;DHT22;40178;53.042;6.406;2023-06-05T01:37:53;9.10;78.40
54264;DHT22;40178;53.042;6.406;2023-06-05T01:40:22;9.10;78.20
54264;DHT22;40178;53.042;6.406;2023-06-05T01:42:48;9.20;74.40
54264;DHT22;40178;53.042;6.406;2023-06-05T01:45:16;9.20;69.10
54264;DHT22;40178;53.042;6.406;2023-06-05T01:47:43;9.20;72.70
54264;DHT22;40178;53.042;6.406;2023-06-05T01:50:09;9.20;81.30
54264;DHT22;40178;53.042;6.406;2023-06-05T01:52:39;9.20;77.00
54264;DHT22;40178;53.042;6.406;2023-06-05T01:55:08;9.20;86.20
54264;DHT22;40178;53.042;6.406;2023-06-05T01:57:41;9.10;86.30
54264;DHT22;40178;53.042;6.406;2023-06-05T02:00:07;9.20;90.80
54264;DHT22;40178;53.042;6.406;2023-06-05T02:02:38;9.30;99.90
54264;DHT22;40178;53.042;6.406;2023-06-05T02:05:07;9.20;98.10
54264;DHT22;40178;53.042;6.406;2023-06-05T02:07:33;9.30;93.20
54264;DHT22;40178;53.042;6.406;2023-06-05T02:09:59;9.30;92.50
54264;DHT22;40178;53.042;6.406;2023-06-05T02:12:29;9.40;90.80
54264;DHT22;40178;53.042;6.406;2023-06-05T02:14:55;9.40;88.90
54264;DHT22;40178;53.042;6.406;2023-06-05T02:17:22;9.50;91.70
54264;DHT22;40178;53.042;6.406;2023-06-05T02:19:50;9.50;93.00
54264;DHT22;40178;53.042;6.406;2023-06-05T02:22:16;9.50;90.10
54264;DHT22;40178;53.042;6.406;2023-06-05T02:24:41;9.50;91.00
54264;DHT22;40178;53.042;6.406;2023-06-05T02:27:08;9.60;89.70
54264;DHT22;40178;53.042;6.406;2023-06-05T02:29:38;9.60;91.30
54264;DHT22;40178;53.042;6.406;2023-06-05T02:32:05;9.60;90.90
54264;DHT22;40178;53.042;6.406;2023-06-05T02:34:32;9.60;91.30
54264;DHT22;40178;53.042;6.406;2023-06-05T02:36:58;9.60;91.20
54264;DHT22;40178;53.042;6.406;2023-06-05T02:39:24;9.60;90.10
54264;DHT22;40178;53.042;6.406;2023-06-05T02:41:51;9.60;92.00
54264;DHT22;40178;53.042;6.406;2023-06-05T02:44:17;9.70;92.00
54264;DHT22;40178;53.042;6.406;2023-06-05T02:46:42;9.70;92.80
54264;DHT22;40178;53.042;6.406;2023-06-05T02:49:08;9.70;91.90
54264;DHT22;40178;53.042;6.406;2023-06-05T02:51:36;9.80;91.10
54264;DHT22;40178;53.042;6.406;2023-06-05T02:54:02;9.80;94.50
54264;DHT22;40178;53.042;6.406;2023-06-05T02:56:28;9.80;92.10
54264;DHT22;40178;53.042;6.406;2023-06-05T02:58:54;9.80;91.50
54264;DHT22;40178;53.042;6.406;2023-06-05T03:01:22;9.80;95.90
54264;DHT22;40178;53.042;6.406;2023-06-05T03:03:48;9.80;95.50
54264;DHT22;40178;53.042;6.406;2023-06-05T03:06:14;9.70;96.10
54264;DHT22;40178;53.042;6.406;2023-06-05T03:08:43;9.70;94.80
54264;DHT22;40178;53.042;6.406;2023-06-05T03:11:09;9.80;94.80
54264;DHT22;40178;53.042;6.406;2023-06-05T03:13:35;9.80;96.20
54264;DHT22;40178;53.042;6.406;2023-06-05T03:16:01;9.80;95.40
54264;DHT22;40178;53.042;6.406;2023-06-05T03:18:30;9.80;94.10
54264;DHT22;40178;53.042;6.406;2023-06-05T03:20:56;9.80;96.50
54264;DHT22;40178;53.042;6.406;2023-06-05T03:23:23;9.80;96.20
54264;DHT22;40178;53.042;6.406;2023-06-05T03:25:49;9.80;98.30
54264;DHT22;40178;53.042;6.406;2023-06-05T03:28:17;9.90;97.10
54264;DHT22;40178;53.042;6.406;2023-06-05T03:30:43;9.90;94.70
54264;DHT22;40178;53.042;6.406;2023-06-05T03:33:09;10.00;98.20
54264;DHT22;40178;53.042;6.406;2023-06-05T03:35:35;10.00;99.00
54264;DHT22;40178;53.042;6.406;2023-06-05T03:38:01;9.90;99.40
54264;DHT22;40178;53.042;6.406;2023-06-05T03:40:28;9.90;99.90
54264;DHT22;40178;53.042;6.406;2023-06-05T03:42:53;9.90;99.90
54264;DHT22;40178;53.042;6.406;2023-06-05T03:45:19;10.00;99.90
54264;DHT22;40178;53.042;6.406;2023-06-05T03:47:44;10.00;99.90
54264;DHT22;40178;53.042;6.406;2023-06-05T03:50:14;10.10;99.90
54264;DHT22;40178;53.042;6.406;2023-06-05T03:52:40;10.10;99.90
54264;DHT22;40178;53.042;6.406;2023-06-05T03:55:07;10.10;99.90
54264;DHT22;40178;53.042;6.406;2023-06-05T03:57:36;10.10;99.90
54264;DHT22;40178;53.042;6.406;2023-06-05T04:00:05;10.10;99.90
54264;DHT22;40178;53.042;6.406;2023-06-05T04:02:35;10.20;99.90
54264;DHT22;40178;53.042;6.406;2023-06-05T04:05:01;10.30;99.90
54264;DHT22;40178;53.042;6.406;2023-06-05T04:07:29;10.30;99.90
54264;DHT22;40178;53.042;6.406;2023-06-05T04:09:54;10.30;99.90
54264;DHT22;40178;53.042;6.406;2023-06-05T04:12:20;10.30;99.90
54264;DHT22;40178;53.042;6.406;2023-06-05T04:14:46;10.40;99.90
54264;DHT22;40178;53.042;6.406;2023-06-05T04:17:12;10.40;99.90
54264;DHT22;40178;53.042;6.406;2023-06-05T04:19:39;10.50;99.90
54264;DHT22;40178;53.042;6.406;2023-06-05T04:22:06;10.50;99.90
54264;DHT22;40178;53.042;6.406;2023-06-05T04:24:31;10.50;99.90
54264;DHT22;40178;53.042;6.406;2023-06-05T04:26:57;10.60;99.90
54264;DHT22;40178;53.042;6.406;2023-06-05T04:29:26;10.70;99.90
54264;DHT22;40178;53.042;6.406;2023-06-05T04:31:52;10.70;99.90
54264;DHT22;40178;53.042;6.406;2023-06-05T04:34:18;10.80;99.90
54264;DHT22;40178;53.042;6.406;2023-06-05T04:36:44;10.80;99.90
54264;DHT22;40178;53.042;6.406;2023-06-05T04:39:10;10.90;98.80
54264;DHT22;40178;53.042;6.406;2023-06-05T04:41:43;10.90;99.20
54264;DHT22;40178;53.042;6.406;2023-06-05T04:44:15;10.90;98.80
54264;DHT22;40178;53.042;6.406;2023-06-05T04:46:46;11.00;97.80
54264;DHT22;40178;53.042;6.406;2023-06-05T04:49:12;11.10;96.60
54264;DHT22;40178;53.042;6.406;2023-06-05T04:51:39;11.10;98.10
54264;DHT22;40178;53.042;6.406;2023-06-05T04:54:04;11.20;98.30
54264;DHT22;40178;53.042;6.406;2023-06-05T04:56:31;11.20;97.10
54264;DHT22;40178;53.042;6.406;2023-06-05T04:58:58;11.20;96.00
54264;DHT22;40178;53.042;6.406;2023-06-05T05:01:25;11.20;97.20
54264;DHT22;40178;53.042;6.406;2023-06-05T05:03:50;11.30;96.90
54264;DHT22;40178;53.042;6.406;2023-06-05T05:06:16;11.30;96.10
54264;DHT22;40178;53.042;6.406;2023-06-05T05:08:43;11.40;94.10
54264;DHT22;40178;53.042;6.406;2023-06-05T05:11:12;11.50;92.90
54264;DHT22;40178;53.042;6.406;2023-06-05T05:13:38;11.50;93.10
54264;DHT22;40178;53.042;6.406;2023-06-05T05:16:03;11.60;93.90
54264;DHT22;40178;53.042;6.406;2023-06-05T05:18:30;11.70;92.70
54264;DHT22;40178;53.042;6.406;2023-06-05T05:20:55;11.80;90.80
54264;DHT22;40178;53.042;6.406;2023-06-05T05:23:21;11.80;88.70
54264;DHT22;40178;53.042;6.406;2023-06-05T05:25:46;11.90;82.80
54264;DHT22;40178;53.042;6.406;2023-06-05T05:28:13;11.90;77.10
54264;DHT22;40178;53.042;6.406;2023-06-05T05:30:38;12.00;74.60
54264;DHT22;40178;53.042;6.406;2023-06-05T05:33:04;12.00;65.60
54264;DHT22;40178;53.042;6.406;2023-06-05T05:35:30;12.00;67.20
54264;DHT22;40178;53.042;6.406;2023-06-05T05:37:56;12.10;64.70
54264;DHT22;40178;53.042;6.406;2023-06-05T05:40:22;12.10;58.30
54264;DHT22;40178;53.042;6.406;2023-06-05T05:42:48;12.30;53.00
54264;DHT22;40178;53.042;6.406;2023-06-05T05:45:13;12.20;56.60
54264;DHT22;40178;53.042;6.406;2023-06-05T05:47:39;12.30;47.60
54264;DHT22;40178;53.042;6.406;2023-06-05T05:50:06;12.40;41.10
54264;DHT22;40178;53.042;6.406;2023-06-05T05:52:32;12.40;26.90
54264;DHT22;40178;53.042;6.406;2023-06-05T05:54:58;12.70;15.00
54264;DHT22;40178;53.042;6.406;2023-06-05T05:57:25;12.50;15.50
54264;DHT22;40178;53.042;6.406;2023-06-05T05:59:51;12.50;2.60
54264;DHT22;40178;53.042;6.406;2023-06-05T06:02:16;12.60;1.00
54264;DHT22;40178;53.042;6.406;2023-06-05T06:04:43;12.80;1.00
54264;DHT22;40178;53.042;6.406;2023-06-05T06:07:12;12.50;1.00
54264;DHT22;40178;53.042;6.406;2023-06-05T06:09:37;12.60;1.00
54264;DHT22;40178;53.042;6.406;2023-06-05T06:12:04;12.60;1.00
54264;DHT22;40178;53.042;6.406;2023-06-05T06:14:32;12.60;1.00
54264;DHT22;40178;53.042;6.406;2023-06-05T06:16:57;12.50;1.00
54264;DHT22;40178;53.042;6.406;2023-06-05T06:19:24;12.60;1.00
54264;DHT22;40178;53.042;6.406;2023-06-05T06:21:51;12.60;1.00
54264;DHT22;40178;53.042;6.406;2023-06-05T06:24:17;12.70;1.00
54264;DHT22;40178;53.042;6.406;2023-06-05T06:26:46;12.80;1.00
54264;DHT22;40178;53.042;6.406;2023-06-05T06:29:19;13.00;1.00
54264;DHT22;40178;53.042;6.406;2023-06-05T06:31:49;13.20;1.00
54264;DHT22;40178;53.042;6.406;2023-06-05T06:34:15;13.30;1.00
54264;DHT22;40178;53.042;6.406;2023-06-05T06:36:42;13.50;1.00
54264;DHT22;40178;53.042;6.406;2023-06-05T06:39:09;13.50;99.90
54264;DHT22;40178;53.042;6.406;2023-06-05T06:41:36;13.50;99.90
54264;DHT22;40178;53.042;6.406;2023-06-05T06:44:02;13.60;99.90
54264;DHT22;40178;53.042;6.406;2023-06-05T06:46:29;13.60;99.90
54264;DHT22;40178;53.042;6.406;2023-06-05T06:48:55;13.60;99.90
54264;DHT22;40178;53.042;6.406;2023-06-05T06:51:20;13.80;99.90
54264;DHT22;40178;53.042;6.406;2023-06-05T06:53:47;14.00;1.00
54264;DHT22;40178;53.042;6.406;2023-06-05T06:56:14;14.00;1.00
54264;DHT22;40178;53.042;6.406;2023-06-05T06:58:44;14.00;99.90
54264;DHT22;40178;53.042;6.406;2023-06-05T07:01:14;14.20;99.90
54264;DHT22;40178;53.042;6.406;2023-06-05T07:03:40;14.40;1.00
54264;DHT22;40178;53.042;6.406;2023-06-05T07:06:08;14.30;1.00
54264;DHT22;40178;53.042;6.406;2023-06-05T07:08:34;14.30;99.90
54264;DHT22;40178;53.042;6.406;2023-06-05T07:11:00;14.40;99.90
54264;DHT22;40178;53.042;6.406;2023-06-05T07:13:26;14.60;1.00
54264;DHT22;40178;53.042;6.406;2023-06-05T07:15:51;14.60;99.90
54264;DHT22;40178;53.042;6.406;2023-06-05T07:18:17;14.50;99.90
54264;DHT22;40178;53.042;6.406;2023-06-05T07:20:43;14.60;1.00
54264;DHT22;40178;53.042;6.406;2023-06-05T07:23:09;14.60;99.90
54264;DHT22;40178;53.042;6.406;2023-06-05T07:25:35;14.60;99.90
54264;DHT22;40178;53.042;6.406;2023-06-05T07:28:08;14.70;99.90
54264;DHT22;40178;53.042;6.406;2023-06-05T07:30:34;14.80;99.90
54264;DHT22;40178;53.042;6.406;2023-06-05T07:33:00;14.80;59.60
54264;DHT22;40178;53.042;6.406;2023-06-05T07:35:25;14.70;99.90
54264;DHT22;40178;53.042;6.406;2023-06-05T07:37:51;14.90;1.00
54264;DHT22;40178;53.042;6.406;2023-06-05T07:40:17;14.90;99.90
54264;DHT22;40178;53.042;6.406;2023-06-05T07:42:43;14.90;99.90
54264;DHT22;40178;53.042;6.406;2023-06-05T07:45:08;15.00;99.90
54264;DHT22;40178;53.042;6.406;2023-06-05T07:47:34;15.10;99.90
54264;DHT22;40178;53.042;6.406;2023-06-05T07:50:01;15.10;99.90
54264;DHT22;40178;53.042;6.406;2023-06-05T07:52:30;15.30;99.90
54264;DHT22;40178;53.042;6.406;2023-06-05T07:54:56;15.30;84.80
54264;DHT22;40178;53.042;6.406;2023-06-05T07:57:22;15.30;1.00
54264;DHT22;40178;53.042;6.406;2023-06-05T07:59:49;15.30;99.90
54264;DHT22;40178;53.042;6.406;2023-06-05T08:02:19;15.40;1.00
54264;DHT22;40178;53.042;6.406;2023-06-05T08:04:44;15.40;99.90
54264;DHT22;40178;53.042;6.406;2023-06-05T08:07:10;15.60;99.90
54264;DHT22;40178;53.042;6.406;2023-06-05T08:09:36;15.70;99.90
54264;DHT22;40178;53.042;6.406;2023-06-05T08:12:05;15.70;99.90
54264;DHT22;40178;53.042;6.406;2023-06-05T08:14:31;15.80;99.90
54264;DHT22;40178;53.042;6.406;2023-06-05T08:16:56;15.90;99.90
54264;DHT22;40178;53.042;6.406;2023-06-05T08:19:25;15.90;99.90
54264;DHT22;40178;53.042;6.406;2023-06-05T08:21:52;16.00;1.00
54264;DHT22;40178;53.042;6.406;2023-06-05T08:24:19;16.10;1.00
54264;DHT22;40178;53.042;6.406;2023-06-05T08:26:45;16.20;1.00
54264;DHT22;40178;53.042;6.406;2023-06-05T08:29:11;16.30;1.00
54264;DHT22;40178;53.042;6.406;2023-06-05T08:31:37;16.40;1.00
54264;DHT22;40178;53.042;6.406;2023-06-05T08:34:04;16.40;1.00
54264;DHT22;40178;53.042;6.406;2023-06-05T08:36:30;16.50;1.00
54264;DHT22;40178;53.042;6.406;2023-06-05T08:38:58;16.70;99.90
54264;DHT22;40178;53.042;6.406;2023-06-05T08:41:24;16.50;99.90
54264;DHT22;40178;53.042;6.406;2023-06-05T08:43:51;16.50;99.90
54264;DHT22;40178;53.042;6.406;2023-06-05T08:46:17;16.50;99.90
54264;DHT22;40178;53.042;6.406;2023-06-05T08:48:47;16.50;99.90
54264;DHT22;40178;53.042;6.406;2023-06-05T08:51:17;16.50;99.90
54264;DHT22;40178;53.042;6.406;2023-06-05T08:53:48;16.60;99.90
54264;DHT22;40178;53.042;6.406;2023-06-05T08:56:16;16.70;99.90
54264;DHT22;40178;53.042;6.406;2023-06-05T08:58:44;16.90;99.90
54264;DHT22;40178;53.042;6.406;2023-06-05T09:01:09;17.00;99.90
54264;DHT22;40178;53.042;6.406;2023-06-05T09:03:35;17.10;99.90
54264;DHT22;40178;53.042;6.406;2023-06-05T09:06:01;17.30;99.90
54264;DHT22;40178;53.042;6.406;2023-06-05T09:08:32;17.30;99.90
54264;DHT22;40178;53.042;6.406;2023-06-05T09:11:21;17.30;99.90
54264;DHT22;40178;53.042;6.406;2023-06-05T09:13:47;17.10;99.90
54264;DHT22;40178;53.042;6.406;2023-06-05T09:16:13;17.10;99.90
54264;DHT22;40178;53.042;6.406;2023-06-05T09:18:56;17.20;99.90
54264;DHT22;40178;53.042;6.406;2023-06-05T09:21:23;17.00;92.40
54264;DHT22;40178;53.042;6.406;2023-06-05T09:24:16;17.10;99.90
54264;DHT22;40178;53.042;6.406;2023-06-05T09:29:30;17.20;99.90
54264;DHT22;40178;53.042;6.406;2023-06-05T09:32:04;17.30;99.90
54264;DHT22;40178;53.042;6.406;2023-06-05T09:34:35;17.40;97.90
54264;DHT22;40178;53.042;6.406;2023-06-05T09:37:09;17.20;52.40
54264;DHT22;40178;53.042;6.406;2023-06-05T09:39:37;17.50;32.00
54264;DHT22;40178;53.042;6.406;2023-06-05T09:42:03;17.50;11.60
54264;DHT22;40178;53.042;6.406;2023-06-05T09:44:29;17.70;1.90
54264;DHT22;40178;53.042;6.406;2023-06-05T09:47:02;17.80;34.90
54264;DHT22;40178;53.042;6.406;2023-06-05T09:49:32;17.90;1.00
54264;DHT22;40178;53.042;6.406;2023-06-05T09:52:01;17.80;1.00
54264;DHT22;40178;53.042;6.406;2023-06-05T09:54:30;17.80;1.00
54264;DHT22;40178;53.042;6.406;2023-06-05T09:57:01;18.00;1.00
54264;DHT22;40178;53.042;6.406;2023-06-05T09:59:29;17.90;1.00
54264;DHT22;40178;53.042;6.406;2023-06-05T10:01:56;17.80;1.00
54264;DHT22;40178;53.042;6.406;2023-06-05T10:04:23;17.80;1.00
54264;DHT22;40178;53.042;6.406;2023-06-05T10:06:57;17.90;1.00
54264;DHT22;40178;53.042;6.406;2023-06-05T10:09:25;18.10;1.00
54264;DHT22;40178;53.042;6.406;2023-06-05T10:11:51;18.40;1.00
54264;DHT22;40178;53.042;6.406;2023-06-05T10:14:21;18.40;1.00
54264;DHT22;40178;53.042;6.406;2023-06-05T10:16:49;18.40;1.00
54264;DHT22;40178;53.042;6.406;2023-06-05T10:19:21;18.50;1.00
54264;DHT22;40178;53.042;6.406;2023-06-05T10:21:48;18.70;1.00
54264;DHT22;40178;53.042;6.406;2023-06-05T10:24:33;18.60;99.90
54264;DHT22;40178;53.042;6.406;2023-06-05T10:40:09;19.00;99.90
54264;DHT22;40178;53.042;6.406;2023-06-05T10:42:36;19.00;99.90
54264;DHT22;40178;53.042;6.406;2023-06-05T10:45:02;19.00;99.90
54264;DHT22;40178;53.042;6.406;2023-06-05T10:52:54;19.10;99.90
54264;DHT22;40178;53.042;6.406;2023-06-05T10:55:23;19.20;99.90
54264;DHT22;40178;53.042;6.406;2023-06-05T11:00:30;19.40;99.90
54264;DHT22;40178;53.042;6.406;2023-06-05T11:02:56;19.40;99.90
54264;DHT22;40178;53.042;6.406;2023-06-05T11:05:22;19.20;99.90
54264;DHT22;40178;53.042;6.406;2023-06-05T11:08:14;19.50;99.90
54264;DHT22;40178;53.042;6.406;2023-06-05T11:11:19;19.60;99.90
54264;DHT22;40178;53.042;6.406;2023-06-05T11:13:55;19.60;99.90
54264;DHT22;40178;53.042;6.406;2023-06-05T11:16:36;19.70;99.90
54264;DHT22;40178;53.042;6.406;2023-06-05T11:22:06;19.80;99.90
54264;DHT22;40178;53.042;6.406;2023-06-05T11:24:37;19.80;99.90
54264;DHT22;40178;53.042;6.406;2023-06-05T11:27:06;19.60;99.90
54264;DHT22;40178;53.042;6.406;2023-06-05T11:29:34;19.90;99.90
54264;DHT22;40178;53.042;6.406;2023-06-05T11:32:00;19.90;99.90
54264;DHT22;40178;53.042;6.406;2023-06-05T11:34:26;19.90;99.90
54264;DHT22;40178;53.042;6.406;2023-06-05T11:36:55;19.90;99.90
54264;DHT22;40178;53.042;6.406;2023-06-05T11:39:20;19.80;99.90
54264;DHT22;40178;53.042;6.406;2023-06-05T11:41:48;19.70;99.90
54264;DHT22;40178;53.042;6.406;2023-06-05T11:44:16;19.70;99.90
54264;DHT22;40178;53.042;6.406;2023-06-05T11:46:55;19.70;99.90
54264;DHT22;40178;53.042;6.406;2023-06-05T11:49:26;19.70;99.90
54264;DHT22;40178;53.042;6.406;2023-06-05T11:51:52;19.90;99.90
54264;DHT22;40178;53.042;6.406;2023-06-05T11:54:25;19.90;99.90
54264;DHT22;40178;53.042;6.406;2023-06-05T11:57:02;20.10;99.90
54264;DHT22;40178;53.042;6.406;2023-06-05T11:59:36;19.90;99.90
54264;DHT22;40178;53.042;6.406;2023-06-05T12:02:03;20.10;99.90
54264;DHT22;40178;53.042;6.406;2023-06-05T12:04:33;20.10;99.90
54264;DHT22;40178;53.042;6.406;2023-06-05T12:06:59;19.90;99.90
54264;DHT22;40178;53.042;6.406;2023-06-05T12:09:27;19.70;99.90
54264;DHT22;40178;53.042;6.406;2023-06-05T12:12:04;19.80;99.90
54264;DHT22;40178;53.042;6.406;2023-06-05T12:14:32;19.90;99.90
54264;DHT22;40178;53.042;6.406;2023-06-05T12:16:58;20.10;99.90
54264;DHT22;40178;53.042;6.406;2023-06-05T12:19:23;19.90;99.90
54264;DHT22;40178;53.042;6.406;2023-06-05T12:21:49;20.00;99.90
54264;DHT22;40178;53.042;6.406;2023-06-05T12:24:25;19.90;99.90
54264;DHT22;40178;53.042;6.406;2023-06-05T12:26:55;20.00;99.90
54264;DHT22;40178;53.042;6.406;2023-06-05T12:29:22;20.10;99.90
54264;DHT22;40178;53.042;6.406;2023-06-05T12:31:48;20.20;99.90
54264;DHT22;40178;53.042;6.406;2023-06-05T12:34:14;20.10;99.90
54264;DHT22;40178;53.042;6.406;2023-06-05T12:36:41;20.30;99.90
54264;DHT22;40178;53.042;6.406;2023-06-05T12:39:12;20.40;99.90
54264;DHT22;40178;53.042;6.406;2023-06-05T12:41:38;20.40;99.90
54264;DHT22;40178;53.042;6.406;2023-06-05T12:44:05;20.40;99.90
54264;DHT22;40178;53.042;6.406;2023-06-05T12:46:32;20.30;99.90
54264;DHT22;40178;53.042;6.406;2023-06-05T12:49:02;20.10;99.90
54264;DHT22;40178;53.042;6.406;2023-06-05T12:51:28;20.30;99.90
54264;DHT22;40178;53.042;6.406;2023-06-05T12:53:56;20.40;99.90
54264;DHT22;40178;53.042;6.406;2023-06-05T12:56:25;20.40;99.90
54264;DHT22;40178;53.042;6.406;2023-06-05T12:58:53;20.50;99.90
54264;DHT22;40178;53.042;6.406;2023-06-05T13:01:20;20.40;99.90
54264;DHT22;40178;53.042;6.406;2023-06-05T13:03:45;20.50;99.90
54264;DHT22;40178;53.042;6.406;2023-06-05T13:06:11;20.40;99.90
54264;DHT22;40178;53.042;6.406;2023-06-05T13:08:37;20.30;99.90
54264;DHT22;40178;53.042;6.406;2023-06-05T13:11:02;20.20;99.90
54264;DHT22;40178;53.042;6.406;2023-06-05T13:13:28;20.20;99.90
54264;DHT22;40178;53.042;6.406;2023-06-05T13:15:54;20.30;99.90
54264;DHT22;40178;53.042;6.406;2023-06-05T13:18:20;20.20;99.90
54264;DHT22;40178;53.042;6.406;2023-06-05T13:20:45;20.40;99.90
54264;DHT22;40178;53.042;6.406;2023-06-05T13:23:11;20.10;99.90
54264;DHT22;40178;53.042;6.406;2023-06-05T13:25:37;20.30;99.90
54264;DHT22;40178;53.042;6.406;2023-06-05T13:28:05;20.10;99.90
54264;DHT22;40178;53.042;6.406;2023-06-05T13:30:32;20.30;99.90
54264;DHT22;40178;53.042;6.406;2023-06-05T13:32:59;20.50;99.90
54264;DHT22;40178;53.042;6.406;2023-06-05T13:35:25;20.50;99.90
54264;DHT22;40178;53.042;6.406;2023-06-05T13:37:58;20.60;99.90
54264;DHT22;40178;53.042;6.406;2023-06-05T13:40:24;20.80;99.90
54264;DHT22;40178;53.042;6.406;2023-06-05T13:42:53;20.90;99.90
54264;DHT22;40178;53.042;6.406;2023-06-05T13:45:19;20.80;99.90
54264;DHT22;40178;53.042;6.406;2023-06-05T13:47:47;20.70;99.90
54264;DHT22;40178;53.042;6.406;2023-06-05T13:50:12;20.70;99.90
54264;DHT22;40178;53.042;6.406;2023-06-05T13:52:41;20.60;99.90
54264;DHT22;40178;53.042;6.406;2023-06-05T13:55:09;20.90;99.90
54264;DHT22;40178;53.042;6.406;2023-06-05T13:57:35;20.70;99.90
54264;DHT22;40178;53.042;6.406;2023-06-05T14:00:01;20.80;99.90
54264;DHT22;40178;53.042;6.406;2023-06-05T14:02:26;20.70;99.90
54264;DHT22;40178;53.042;6.406;2023-06-05T14:04:52;20.70;99.90
54264;DHT22;40178;53.042;6.406;2023-06-05T14:07:18;20.60;99.90
54264;DHT22;40178;53.042;6.406;2023-06-05T14:09:43;20.80;99.90
54264;DHT22;40178;53.042;6.406;2023-06-05T14:12:09;20.90;99.90
54264;DHT22;40178;53.042;6.406;2023-06-05T14:14:35;20.90;99.90
54264;DHT22;40178;53.042;6.406;2023-06-05T14:17:01;21.00;99.90
54264;DHT22;40178;53.042;6.406;2023-06-05T14:19:26;20.80;99.90
54264;DHT22;40178;53.042;6.406;2023-06-05T14:21:52;21.00;99.90
54264;DHT22;40178;53.042;6.406;2023-06-05T14:24:18;20.80;99.90
54264;DHT22;40178;53.042;6.406;2023-06-05T14:26:45;20.80;99.90
54264;DHT22;40178;53.042;6.406;2023-06-05T14:29:11;20.90;99.90
54264;DHT22;40178;53.042;6.406;2023-06-05T14:31:36;20.90;99.90
54264;DHT22;40178;53.042;6.406;2023-06-05T14:34:03;21.00;99.90
54264;DHT22;40178;53.042;6.406;2023-06-05T14:36:29;20.90;99.90
54264;DHT22;40178;53.042;6.406;2023-06-05T14:38:54;20.80;99.90
54264;DHT22;40178;53.042;6.406;2023-06-05T14:41:20;20.90;99.90
54264;DHT22;40178;53.042;6.406;2023-06-05T14:43:46;20.80;99.90
54264;DHT22;40178;53.042;6.406;2023-06-05T14:46:11;21.10;99.90
54264;DHT22;40178;53.042;6.406;2023-06-05T14:48:37;21.20;99.90
54264;DHT22;40178;53.042;6.406;2023-06-05T14:51:02;21.00;99.90
54264;DHT22;40178;53.042;6.406;2023-06-05T14:53:28;21.20;99.90
54264;DHT22;40178;53.042;6.406;2023-06-05T14:55:54;21.30;99.90
54264;DHT22;40178;53.042;6.406;2023-06-05T14:58:19;21.30;99.90
54264;DHT22;40178;53.042;6.406;2023-06-05T15:00:45;21.40;99.90
54264;DHT22;40178;53.042;6.406;2023-06-05T15:03:11;21.30;99.90
54264;DHT22;40178;53.042;6.406;2023-06-05T15:05:37;21.20;99.90
54264;DHT22;40178;53.042;6.406;2023-06-05T15:08:02;21.50;99.90
54264;DHT22;40178;53.042;6.406;2023-06-05T15:10:28;21.60;99.90
54264;DHT22;40178;53.042;6.406;2023-06-05T15:12:54;21.70;99.90
54264;DHT22;40178;53.042;6.406;2023-06-05T15:15:23;21.80;99.90
54264;DHT22;40178;53.042;6.406;2023-06-05T15:17:49;21.80;95.30
54264;DHT22;40178;53.042;6.406;2023-06-05T15:20:18;21.90;95.10
54264;DHT22;40178;53.042;6.406;2023-06-05T15:22:44;21.40;60.40
54264;DHT22;40178;53.042;6.406;2023-06-05T15:25:10;21.70;80.60
54264;DHT22;40178;53.042;6.406;2023-06-05T15:27:36;21.90;74.90
54264;DHT22;40178;53.042;6.406;2023-06-05T15:30:03;21.80;67.50
54264;DHT22;40178;53.042;6.406;2023-06-05T15:32:29;21.80;58.30
54264;DHT22;40178;53.042;6.406;2023-06-05T15:34:55;21.90;54.90
54264;DHT22;40178;53.042;6.406;2023-06-05T15:37:22;21.80;46.70
54264;DHT22;40178;53.042;6.406;2023-06-05T15:39:48;21.80;35.80
54264;DHT22;40178;53.042;6.406;2023-06-05T15:42:17;21.80;37.30
54264;DHT22;40178;53.042;6.406;2023-06-05T15:44:43;22.10;34.70
54264;DHT22;40178;53.042;6.406;2023-06-05T15:47:08;21.80;24.00
54264;DHT22;40178;53.042;6.406;2023-06-05T15:49:34;22.00;27.30
54264;DHT22;40178;53.042;6.406;2023-06-05T15:52:00;22.00;30.50
54264;DHT22;40178;53.042;6.406;2023-06-05T15:54:26;22.00;16.90
54264;DHT22;40178;53.042;6.406;2023-06-05T15:57:02;22.20;20.40
54264;DHT22;40178;53.042;6.406;2023-06-05T15:59:28;22.20;9.30
54264;DHT22;40178;53.042;6.406;2023-06-05T16:01:53;22.30;13.10
54264;DHT22;40178;53.042;6.406;2023-06-05T16:04:19;22.40;11.40
54264;DHT22;40178;53.042;6.406;2023-06-05T16:06:44;22.50;6.80
54264;DHT22;40178;53.042;6.406;2023-06-05T16:09:10;22.70;1.00
54264;DHT22;40178;53.042;6.406;2023-06-05T16:11:36;22.90;1.00
54264;DHT22;40178;53.042;6.406;2023-06-05T16:14:02;22.80;1.00